sensor_id;sensor_type;location;lat;lon;timestamp;pressure;altitude;pressure_sealevel;temperature;humidity
47522;BME280;32291;52.010;4.446;2023-04-21T00:00:08;79051.94;;;-144.67;100.00
47522;BME280;32291;52.010;4.446;2023-04-21T00:01:11;79058.38;;;-144.67;100.00
47522;BME280;32291;52.010;4.446;2023-04-21T00:02:13;79051.94;;;-144.67;100.00
47522;BME280;32291;52.010;4.446;2023-04-21T00:03:16;79049.81;;;-144.67;100.00
47522;BME280;32291;52.010;4.446;2023-04-21T00:04:20;79049.81;;;-144.67;100.00
47522;BME280;32291;52.010;4.446;2023-04-21T00:05:21;79047.66;;;-144.67;100.00
47522;BME280;32291;52.010;4.446;2023-04-21T00:06:23;79041.25;;;-144.67;100.00
47522;BME280;32291;52.010;4.446;2023-04-21T00:07:25;79049.81;;;-144.67;100.00
47522;BME280;32291;52.010;4.446;2023-04-21T00:08:29;79045.53;;;-144.67;100.00
47522;BME280;32291;52.010;4.446;2023-04-21T00:09:31;79041.25;;;-144.67;100.00
47522;BME280;32291;52.010;4.446;2023-04-21T00:10:33;79039.09;;;-144.67;100.00
47522;BME280;32291;52.010;4.446;2023-04-21T00:11:35;79041.25;;;-144.67;100.00
47522;BME280;32291;52.010;4.446;2023-04-21T00:12:37;79039.09;;;-144.67;100.00
47522;BME280;32291;52.010;4.446;2023-04-21T00:13:40;79045.53;;;-144.67;100.00
47522;BME280;32291;52.010;4.446;2023-04-21T00:14:42;79043.38;;;-144.67;100.00
47522;BME280;32291;52.010;4.446;2023-04-21T00:15:44;79056.22;;;-144.67;100.00
47522;BME280;32291;52.010;4.446;2023-04-21T00:16:46;79051.94;;;-144.67;100.00
47522;BME280;32291;52.010;4.446;2023-04-21T00:17:52;79056.22;;;-144.67;100.00
47522;BME280;32291;52.010;4.446;2023-04-21T00:18:54;79066.94;;;-144.67;100.00
47522;BME280;32291;52.010;4.446;2023-04-21T00:19:56;79062.66;;;-144.67;100.00
47522;BME280;32291;52.010;4.446;2023-04-21T00:20:58;79060.50;;;-144.67;100.00
47522;BME280;32291;52.010;4.446;2023-04-21T00:22:00;79064.78;;;-144.67;100.00
47522;BME280;32291;52.010;4.446;2023-04-21T00:23:02;79071.22;;;-144.67;100.00
47522;BME280;32291;52.010;4.446;2023-04-21T00:24:05;79066.94;;;-144.67;100.00
47522;BME280;32291;52.010;4.446;2023-04-21T00:25:07;79069.06;;;-144.67;100.00
47522;BME280;32291;52.010;4.446;2023-04-21T00:26:09;79071.22;;;-144.67;100.00
47522;BME280;32291;52.010;4.446;2023-04-21T00:27:11;79071.22;;;-144.67;100.00
47522;BME280;32291;52.010;4.446;2023-04-21T00:28:14;79066.94;;;-144.67;100.00
47522;BME280;32291;52.010;4.446;2023-04-21T00:29:16;79071.22;;;-144.67;100.00
47522;BME280;32291;52.010;4.446;2023-04-21T00:30:18;79066.94;;;-144.67;100.00
47522;BME280;32291;52.010;4.446;2023-04-21T00:31:21;79075.50;;;-144.67;100.00
47522;BME280;32291;52.010;4.446;2023-04-21T00:32:22;79066.94;;;-144.67;100.00
47522;BME280;32291;52.010;4.446;2023-04-21T00:33:24;79062.66;;;-144.67;100.00
47522;BME280;32291;52.010;4.446;2023-04-21T00:34:25;79062.66;;;-144.67;100.00
47522;BME280;32291;52.010;4.446;2023-04-21T00:35:27;79054.09;;;-144.67;100.00
47522;BME280;32291;52.010;4.446;2023-04-21T00:36:29;79049.81;;;-144.67;100.00
47522;BME280;32291;52.010;4.446;2023-04-21T00:37:31;79047.66;;;-144.67;100.00
47522;BME280;32291;52.010;4.446;2023-04-21T00:38:32;79049.81;;;-144.67;100.00
47522;BME280;32291;52.010;4.446;2023-04-21T00:39:34;79054.09;;;-144.67;100.00
47522;BME280;32291;52.010;4.446;2023-04-21T00:40:36;79058.38;;;-144.67;100.00
47522;BME280;32291;52.010;4.446;2023-04-21T00:41:40;79058.38;;;-144.67;100.00
47522;BME280;32291;52.010;4.446;2023-04-21T00:42:41;79056.22;;;-144.67;100.00
47522;BME280;32291;52.010;4.446;2023-04-21T00:44:03;79054.09;;;-144.67;100.00
47522;BME280;32291;52.010;4.446;2023-04-21T00:45:06;79049.81;;;-144.67;100.00
47522;BME280;32291;52.010;4.446;2023-04-21T00:46:08;79051.94;;;-144.67;100.00
47522;BME280;32291;52.010;4.446;2023-04-21T00:47:10;79045.53;;;-144.67;100.00
47522;BME280;32291;52.010;4.446;2023-04-21T00:48:12;79043.38;;;-144.67;100.00
47522;BME280;32291;52.010;4.446;2023-04-21T00:49:13;79049.81;;;-144.67;100.00
47522;BME280;32291;52.010;4.446;2023-04-21T00:50:15;79036.97;;;-144.67;100.00
47522;BME280;32291;52.010;4.446;2023-04-21T00:51:17;79036.97;;;-144.67;100.00
47522;BME280;32291;52.010;4.446;2023-04-21T00:52:18;79030.53;;;-144.67;100.00
47522;BME280;32291;52.010;4.446;2023-04-21T00:53:21;79028.38;;;-144.67;100.00
47522;BME280;32291;52.010;4.446;2023-04-21T00:54:24;79030.53;;;-144.67;100.00
47522;BME280;32291;52.010;4.446;2023-04-21T00:55:29;79032.69;;;-144.67;100.00
47522;BME280;32291;52.010;4.446;2023-04-21T00:56:34;79024.09;;;-144.67;100.00
47522;BME280;32291;52.010;4.446;2023-04-21T00:57:37;79017.69;;;-144.67;100.00
47522;BME280;32291;52.010;4.446;2023-04-21T00:58:41;79009.13;;;-144.67;100.00
47522;BME280;32291;52.010;4.446;2023-04-21T00:59:43;79015.53;;;-144.67;100.00
47522;BME280;32291;52.010;4.446;2023-04-21T01:00:44;79017.69;;;-144.67;100.00
47522;BME280;32291;52.010;4.446;2023-04-21T01:01:46;79015.53;;;-144.67;100.00
47522;BME280;32291;52.010;4.446;2023-04-21T01:02:48;79006.97;;;-144.67;100.00
47522;BME280;32291;52.010;4.446;2023-04-21T01:03:51;79011.25;;;-144.67;100.00
47522;BME280;32291;52.010;4.446;2023-04-21T01:04:53;79009.13;;;-144.67;100.00
47522;BME280;32291;52.010;4.446;2023-04-21T01:05:55;79009.13;;;-144.67;100.00
47522;BME280;32291;52.010;4.446;2023-04-21T01:06:57;79013.41;;;-144.67;100.00
47522;BME280;32291;52.010;4.446;2023-04-21T01:08:01;79015.53;;;-144.67;100.00
47522;BME280;32291;52.010;4.446;2023-04-21T01:09:03;79009.13;;;-144.67;100.00
47522;BME280;32291;52.010;4.446;2023-04-21T01:10:06;79006.97;;;-144.67;100.00
47522;BME280;32291;52.010;4.446;2023-04-21T01:11:11;79006.97;;;-144.67;100.00
47522;BME280;32291;52.010;4.446;2023-04-21T01:12:13;79009.13;;;-144.67;100.00
47522;BME280;32291;52.010;4.446;2023-04-21T01:13:19;79009.13;;;-144.67;100.00
47522;BME280;32291;52.010;4.446;2023-04-21T01:14:22;79004.84;;;-144.67;100.00
47522;BME280;32291;52.010;4.446;2023-04-21T01:15:24;79011.25;;;-144.67;100.00
47522;BME280;32291;52.010;4.446;2023-04-21T01:16:27;79000.56;;;-144.67;100.00
47522;BME280;32291;52.010;4.446;2023-04-21T01:17:29;79006.97;;;-144.67;100.00
47522;BME280;32291;52.010;4.446;2023-04-21T01:18:31;79013.41;;;-144.67;100.00
47522;BME280;32291;52.010;4.446;2023-04-21T01:19:40;79019.81;;;-144.67;100.00
47522;BME280;32291;52.010;4.446;2023-04-21T01:20:42;79015.53;;;-144.67;100.00
47522;BME280;32291;52.010;4.446;2023-04-21T01:21:47;79015.53;;;-144.67;100.00
47522;BME280;32291;52.010;4.446;2023-04-21T01:22:49;79011.25;;;-144.67;100.00
47522;BME280;32291;52.010;4.446;2023-04-21T01:23:52;79013.41;;;-144.67;100.00
47522;BME280;32291;52.010;4.446;2023-04-21T01:24:54;79011.25;;;-144.67;100.00
47522;BME280;32291;52.010;4.446;2023-04-21T01:25:57;79011.25;;;-144.67;100.00
47522;BME280;32291;52.010;4.446;2023-04-21T01:26:58;79011.25;;;-144.67;100.00
47522;BME280;32291;52.010;4.446;2023-04-21T01:28:01;79011.25;;;-144.67;100.00
47522;BME280;32291;52.010;4.446;2023-04-21T01:29:02;79017.69;;;-144.67;100.00
47522;BME280;32291;52.010;4.446;2023-04-21T01:30:06;79028.38;;;-144.67;100.00
47522;BME280;32291;52.010;4.446;2023-04-21T01:31:11;79017.69;;;-144.67;100.00
47522;BME280;32291;52.010;4.446;2023-04-21T01:32:19;79011.25;;;-144.67;100.00
47522;BME280;32291;52.010;4.446;2023-04-21T01:33:22;79017.69;;;-144.67;100.00
47522;BME280;32291;52.010;4.446;2023-04-21T01:34:24;79021.97;;;-144.67;100.00
47522;BME280;32291;52.010;4.446;2023-04-21T01:35:26;79015.53;;;-144.67;100.00
47522;BME280;32291;52.010;4.446;2023-04-21T01:36:28;79004.84;;;-144.67;100.00
47522;BME280;32291;52.010;4.446;2023-04-21T01:37:32;79011.25;;;-144.67;100.00
47522;BME280;32291;52.010;4.446;2023-04-21T01:38:40;79011.25;;;-144.67;100.00
47522;BME280;32291;52.010;4.446;2023-04-21T01:39:48;79011.25;;;-144.67;100.00
47522;BME280;32291;52.010;4.446;2023-04-21T01:40:55;79004.84;;;-144.67;100.00
47522;BME280;32291;52.010;4.446;2023-04-21T01:41:57;79013.41;;;-144.67;100.00
47522;BME280;32291;52.010;4.446;2023-04-21T01:42:59;79015.53;;;-144.67;100.00
47522;BME280;32291;52.010;4.446;2023-04-21T01:44:01;79013.41;;;-144.67;100.00
47522;BME280;32291;52.010;4.446;2023-04-21T01:45:03;79015.53;;;-144.67;100.00
47522;BME280;32291;52.010;4.446;2023-04-21T01:46:06;79011.25;;;-144.67;100.00
47522;BME280;32291;52.010;4.446;2023-04-21T01:47:09;79006.97;;;-144.67;100.00
47522;BME280;32291;52.010;4.446;2023-04-21T01:48:11;78998.41;;;-144.67;100.00
47522;BME280;32291;52.010;4.446;2023-04-21T01:49:13;79004.84;;;-144.67;100.00
47522;BME280;32291;52.010;4.446;2023-04-21T01:50:16;79000.56;;;-144.67;100.00
47522;BME280;32291;52.010;4.446;2023-04-21T01:51:18;78998.41;;;-144.67;100.00
47522;BME280;32291;52.010;4.446;2023-04-21T01:52:20;78998.41;;;-144.67;100.00
47522;BME280;32291;52.010;4.446;2023-04-21T01:53:23;78996.25;;;-144.67;100.00
47522;BME280;32291;52.010;4.446;2023-04-21T01:54:25;78998.41;;;-144.67;100.00
47522;BME280;32291;52.010;4.446;2023-04-21T01:55:27;79000.56;;;-144.67;100.00
47522;BME280;32291;52.010;4.446;2023-04-21T01:56:29;78998.41;;;-144.67;100.00
47522;BME280;32291;52.010;4.446;2023-04-21T01:57:31;78998.41;;;-144.67;100.00
47522;BME280;32291;52.010;4.446;2023-04-21T01:58:33;79002.69;;;-144.67;100.00
47522;BME280;32291;52.010;4.446;2023-04-21T01:59:35;78985.56;;;-144.67;100.00
47522;BME280;32291;52.010;4.446;2023-04-21T02:00:37;78991.97;;;-144.67;100.00
47522;BME280;32291;52.010;4.446;2023-04-21T02:01:38;78987.69;;;-144.67;100.00
47522;BME280;32291;52.010;4.446;2023-04-21T02:02:40;78989.84;;;-144.67;100.00
47522;BME280;32291;52.010;4.446;2023-04-21T02:03:42;78981.28;;;-144.67;100.00
47522;BME280;32291;52.010;4.446;2023-04-21T02:04:44;78985.56;;;-144.67;100.00
47522;BME280;32291;52.010;4.446;2023-04-21T02:05:46;78979.13;;;-144.67;100.00
47522;BME280;32291;52.010;4.446;2023-04-21T02:06:48;78977.00;;;-144.67;100.00
47522;BME280;32291;52.010;4.446;2023-04-21T02:07:50;78977.00;;;-144.67;100.00
47522;BME280;32291;52.010;4.446;2023-04-21T02:08:51;78977.00;;;-144.67;100.00
47522;BME280;32291;52.010;4.446;2023-04-21T02:09:53;78981.28;;;-144.67;100.00
47522;BME280;32291;52.010;4.446;2023-04-21T02:10:55;78977.00;;;-144.67;100.00
47522;BME280;32291;52.010;4.446;2023-04-21T02:11:57;78979.13;;;-144.67;100.00
47522;BME280;32291;52.010;4.446;2023-04-21T02:12:59;78977.00;;;-144.67;100.00
47522;BME280;32291;52.010;4.446;2023-04-21T02:14:01;78977.00;;;-144.67;100.00
47522;BME280;32291;52.010;4.446;2023-04-21T02:15:04;78981.28;;;-144.67;100.00
47522;BME280;32291;52.010;4.446;2023-04-21T02:16:06;78981.28;;;-144.67;100.00
47522;BME280;32291;52.010;4.446;2023-04-21T02:17:08;78985.56;;;-144.67;100.00
47522;BME280;32291;52.010;4.446;2023-04-21T02:18:10;78983.41;;;-144.67;100.00
47522;BME280;32291;52.010;4.446;2023-04-21T02:19:12;78985.56;;;-144.67;100.00
47522;BME280;32291;52.010;4.446;2023-04-21T02:20:14;78985.56;;;-144.67;100.00
47522;BME280;32291;52.010;4.446;2023-04-21T02:21:16;78991.97;;;-144.67;100.00
47522;BME280;32291;52.010;4.446;2023-04-21T02:22:18;78983.41;;;-144.67;100.00
47522;BME280;32291;52.010;4.446;2023-04-21T02:23:19;78977.00;;;-144.67;100.00
47522;BME280;32291;52.010;4.446;2023-04-21T02:24:21;78972.72;;;-144.67;100.00
47522;BME280;32291;52.010;4.446;2023-04-21T02:25:23;78972.72;;;-144.67;100.00
47522;BME280;32291;52.010;4.446;2023-04-21T02:26:25;78964.16;;;-144.67;100.00
47522;BME280;32291;52.010;4.446;2023-04-21T02:27:27;78981.28;;;-144.67;100.00
47522;BME280;32291;52.010;4.446;2023-04-21T02:28:28;78979.13;;;-144.67;100.00
47522;BME280;32291;52.010;4.446;2023-04-21T02:29:31;78977.00;;;-144.67;100.00
47522;BME280;32291;52.010;4.446;2023-04-21T02:30:33;78972.72;;;-144.67;100.00
47522;BME280;32291;52.010;4.446;2023-04-21T02:31:35;78979.13;;;-144.67;100.00
47522;BME280;32291;52.010;4.446;2023-04-21T02:32:37;78977.00;;;-144.67;100.00
47522;BME280;32291;52.010;4.446;2023-04-21T02:33:39;78981.28;;;-144.67;100.00
47522;BME280;32291;52.010;4.446;2023-04-21T02:34:41;78981.28;;;-144.67;100.00
47522;BME280;32291;52.010;4.446;2023-04-21T02:35:44;78987.69;;;-144.67;100.00
47522;BME280;32291;52.010;4.446;2023-04-21T02:36:46;78989.84;;;-144.67;100.00
47522;BME280;32291;52.010;4.446;2023-04-21T02:37:48;78985.56;;;-144.67;100.00
47522;BME280;32291;52.010;4.446;2023-04-21T02:38:50;78972.72;;;-144.67;100.00
47522;BME280;32291;52.010;4.446;2023-04-21T02:39:52;78985.56;;;-144.67;100.00
47522;BME280;32291;52.010;4.446;2023-04-21T02:40:53;78981.28;;;-144.67;100.00
47522;BME280;32291;52.010;4.446;2023-04-21T02:41:56;78977.00;;;-144.67;100.00
47522;BME280;32291;52.010;4.446;2023-04-21T02:42:57;78974.84;;;-144.67;100.00
47522;BME280;32291;52.010;4.446;2023-04-21T02:43:59;78979.13;;;-144.67;100.00
47522;BME280;32291;52.010;4.446;2023-04-21T02:45:01;78981.28;;;-144.67;100.00
47522;BME280;32291;52.010;4.446;2023-04-21T02:46:07;78972.72;;;-144.67;100.00
47522;BME280;32291;52.010;4.446;2023-04-21T02:47:08;78972.72;;;-144.67;100.00
47522;BME280;32291;52.010;4.446;2023-04-21T02:48:10;78972.72;;;-144.67;100.00
47522;BME280;32291;52.010;4.446;2023-04-21T02:49:12;78977.00;;;-144.67;100.00
47522;BME280;32291;52.010;4.446;2023-04-21T02:50:13;78970.56;;;-144.67;100.00
47522;BME280;32291;52.010;4.446;2023-04-21T02:51:15;78977.00;;;-144.67;100.00
47522;BME280;32291;52.010;4.446;2023-04-21T02:52:17;78974.84;;;-144.67;100.00
47522;BME280;32291;52.010;4.446;2023-04-21T02:53:21;78977.00;;;-144.67;100.00
47522;BME280;32291;52.010;4.446;2023-04-21T02:54:23;78972.72;;;-144.67;100.00
47522;BME280;32291;52.010;4.446;2023-04-21T02:55:25;78974.84;;;-144.67;100.00
47522;BME280;32291;52.010;4.446;2023-04-21T02:56:27;78979.13;;;-144.67;100.00
47522;BME280;32291;52.010;4.446;2023-04-21T02:57:28;78983.41;;;-144.67;100.00
47522;BME280;32291;52.010;4.446;2023-04-21T02:58:30;78983.41;;;-144.67;100.00
47522;BME280;32291;52.010;4.446;2023-04-21T02:59:32;78989.84;;;-144.67;100.00
47522;BME280;32291;52.010;4.446;2023-04-21T03:00:34;78983.41;;;-144.67;100.00
47522;BME280;32291;52.010;4.446;2023-04-21T03:01:36;78974.84;;;-144.67;100.00
47522;BME280;32291;52.010;4.446;2023-04-21T03:02:39;78974.84;;;-144.67;100.00
47522;BME280;32291;52.010;4.446;2023-04-21T03:03:41;78977.00;;;-144.67;100.00
47522;BME280;32291;52.010;4.446;2023-04-21T03:04:42;78979.13;;;-144.67;100.00
47522;BME280;32291;52.010;4.446;2023-04-21T03:05:44;78977.00;;;-144.67;100.00
47522;BME280;32291;52.010;4.446;2023-04-21T03:06:46;78981.28;;;-144.67;100.00
47522;BME280;32291;52.010;4.446;2023-04-21T03:07:47;78974.84;;;-144.67;100.00
47522;BME280;32291;52.010;4.446;2023-04-21T03:08:49;78977.00;;;-144.67;100.00
47522;BME280;32291;52.010;4.446;2023-04-21T03:09:51;78977.00;;;-144.67;100.00
47522;BME280;32291;52.010;4.446;2023-04-21T03:10:53;78989.84;;;-144.67;100.00
47522;BME280;32291;52.010;4.446;2023-04-21T03:11:55;78989.84;;;-144.67;100.00
47522;BME280;32291;52.010;4.446;2023-04-21T03:12:57;78989.84;;;-144.67;100.00
47522;BME280;32291;52.010;4.446;2023-04-21T03:13:59;78989.84;;;-144.67;100.00
47522;BME280;32291;52.010;4.446;2023-04-21T03:15:01;78994.13;;;-144.67;100.00
47522;BME280;32291;52.010;4.446;2023-04-21T03:16:04;78989.84;;;-144.67;100.00
47522;BME280;32291;52.010;4.446;2023-04-21T03:17:05;78991.97;;;-144.67;100.00
47522;BME280;32291;52.010;4.446;2023-04-21T03:18:07;78985.56;;;-144.67;100.00
47522;BME280;32291;52.010;4.446;2023-04-21T03:19:09;78989.84;;;-144.67;100.00
47522;BME280;32291;52.010;4.446;2023-04-21T03:20:10;78987.69;;;-144.67;100.00
47522;BME280;32291;52.010;4.446;2023-04-21T03:21:13;78994.13;;;-144.67;100.00
47522;BME280;32291;52.010;4.446;2023-04-21T03:22:15;78989.84;;;-144.67;100.00
47522;BME280;32291;52.010;4.446;2023-04-21T03:23:17;78989.84;;;-144.67;100.00
47522;BME280;32291;52.010;4.446;2023-04-21T03:24:19;78989.84;;;-144.67;100.00
47522;BME280;32291;52.010;4.446;2023-04-21T03:25:22;78981.28;;;-144.67;100.00
47522;BME280;32291;52.010;4.446;2023-04-21T03:26:23;78979.13;;;-144.67;100.00
47522;BME280;32291;52.010;4.446;2023-04-21T03:27:25;78972.72;;;-144.67;100.00
47522;BME280;32291;52.010;4.446;2023-04-21T03:28:27;78972.72;;;-144.67;100.00
47522;BME280;32291;52.010;4.446;2023-04-21T03:29:29;78972.72;;;-144.67;100.00
47522;BME280;32291;52.010;4.446;2023-04-21T03:30:31;78970.56;;;-144.67;100.00
47522;BME280;32291;52.010;4.446;2023-04-21T03:31:33;78964.16;;;-144.67;100.00
47522;BME280;32291;52.010;4.446;2023-04-21T03:32:35;78968.44;;;-144.67;100.00
47522;BME280;32291;52.010;4.446;2023-04-21T03:33:37;78964.16;;;-144.67;100.00
47522;BME280;32291;52.010;4.446;2023-04-21T03:34:39;78964.16;;;-144.67;100.00
47522;BME280;32291;52.010;4.446;2023-04-21T03:35:41;78957.72;;;-144.67;100.00
47522;BME280;32291;52.010;4.446;2023-04-21T03:36:43;78955.59;;;-144.67;100.00
47522;BME280;32291;52.010;4.446;2023-04-21T03:37:45;78957.72;;;-144.67;100.00
47522;BME280;32291;52.010;4.446;2023-04-21T03:38:46;78951.31;;;-144.67;100.00
47522;BME280;32291;52.010;4.446;2023-04-21T03:39:48;78949.16;;;-144.67;100.00
47522;BME280;32291;52.010;4.446;2023-04-21T03:40:50;78947.03;;;-144.67;100.00
47522;BME280;32291;52.010;4.446;2023-04-21T03:41:52;78947.03;;;-144.67;100.00
47522;BME280;32291;52.010;4.446;2023-04-21T03:42:54;78944.88;;;-144.67;100.00
47522;BME280;32291;52.010;4.446;2023-04-21T03:43:56;78947.03;;;-144.67;100.00
47522;BME280;32291;52.010;4.446;2023-04-21T03:45:06;78947.03;;;-144.67;100.00
47522;BME280;32291;52.010;4.446;2023-04-21T03:46:20;78940.59;;;-144.67;100.00
47522;BME280;32291;52.010;4.446;2023-04-21T03:47:22;78938.44;;;-144.67;100.00
47522;BME280;32291;52.010;4.446;2023-04-21T03:48:27;78942.72;;;-144.67;100.00
47522;BME280;32291;52.010;4.446;2023-04-21T03:49:29;78934.16;;;-144.67;100.00
47522;BME280;32291;52.010;4.446;2023-04-21T03:50:31;78929.88;;;-144.67;100.00
47522;BME280;32291;52.010;4.446;2023-04-21T03:51:33;78929.88;;;-144.67;100.00
47522;BME280;32291;52.010;4.446;2023-04-21T03:52:35;78929.88;;;-144.67;100.00
47522;BME280;32291;52.010;4.446;2023-04-21T03:53:37;78921.31;;;-144.67;100.00
47522;BME280;32291;52.010;4.446;2023-04-21T03:54:38;78932.03;;;-144.67;100.00
47522;BME280;32291;52.010;4.446;2023-04-21T03:55:40;78936.31;;;-144.67;100.00
47522;BME280;32291;52.010;4.446;2023-04-21T03:56:42;78932.03;;;-144.67;100.00
47522;BME280;32291;52.010;4.446;2023-04-21T03:57:44;78929.88;;;-144.67;100.00
47522;BME280;32291;52.010;4.446;2023-04-21T03:58:46;78934.16;;;-144.67;100.00
47522;BME280;32291;52.010;4.446;2023-04-21T03:59:48;78934.16;;;-144.67;100.00
47522;BME280;32291;52.010;4.446;2023-04-21T04:00:50;78934.16;;;-144.67;100.00
47522;BME280;32291;52.010;4.446;2023-04-21T04:01:51;78925.59;;;-144.67;100.00
47522;BME280;32291;52.010;4.446;2023-04-21T04:02:53;78921.31;;;-144.67;100.00
47522;BME280;32291;52.010;4.446;2023-04-21T04:03:54;78919.19;;;-144.67;100.00
47522;BME280;32291;52.010;4.446;2023-04-21T04:04:56;78919.19;;;-144.67;100.00
47522;BME280;32291;52.010;4.446;2023-04-21T04:05:58;78912.75;;;-144.67;100.00
47522;BME280;32291;52.010;4.446;2023-04-21T04:06:59;78912.75;;;-144.67;100.00
47522;BME280;32291;52.010;4.446;2023-04-21T04:08:01;78917.03;;;-144.67;100.00
47522;BME280;32291;52.010;4.446;2023-04-21T04:09:03;78917.03;;;-144.67;100.00
47522;BME280;32291;52.010;4.446;2023-04-21T04:10:05;78914.91;;;-144.67;100.00
47522;BME280;32291;52.010;4.446;2023-04-21T04:11:07;78923.47;;;-144.67;100.00
47522;BME280;32291;52.010;4.446;2023-04-21T04:12:08;78925.59;;;-144.67;100.00
47522;BME280;32291;52.010;4.446;2023-04-21T04:13:10;78938.44;;;-144.67;100.00
47522;BME280;32291;52.010;4.446;2023-04-21T04:14:12;78934.16;;;-144.67;100.00
47522;BME280;32291;52.010;4.446;2023-04-21T04:15:14;78925.59;;;-144.67;100.00
47522;BME280;32291;52.010;4.446;2023-04-21T04:16:19;78934.16;;;-144.67;100.00
47522;BME280;32291;52.010;4.446;2023-04-21T04:17:21;78925.59;;;-144.67;100.00
47522;BME280;32291;52.010;4.446;2023-04-21T04:18:22;78929.88;;;-144.67;100.00
47522;BME280;32291;52.010;4.446;2023-04-21T04:19:31;78925.59;;;-144.67;100.00
47522;BME280;32291;52.010;4.446;2023-04-21T04:20:34;78929.88;;;-144.67;100.00
47522;BME280;32291;52.010;4.446;2023-04-21T04:21:36;78934.16;;;-144.67;100.00
47522;BME280;32291;52.010;4.446;2023-04-21T04:22:38;78938.44;;;-144.67;100.00
47522;BME280;32291;52.010;4.446;2023-04-21T04:23:40;78940.59;;;-144.67;100.00
47522;BME280;32291;52.010;4.446;2023-04-21T04:24:43;78947.03;;;-144.67;100.00
47522;BME280;32291;52.010;4.446;2023-04-21T04:25:45;78947.03;;;-144.67;100.00
47522;BME280;32291;52.010;4.446;2023-04-21T04:26:48;78953.44;;;-144.67;100.00
47522;BME280;32291;52.010;4.446;2023-04-21T04:27:49;78947.03;;;-144.67;100.00
47522;BME280;32291;52.010;4.446;2023-04-21T04:28:51;78942.72;;;-144.67;100.00
47522;BME280;32291;52.010;4.446;2023-04-21T04:29:54;78938.44;;;-144.67;100.00
47522;BME280;32291;52.010;4.446;2023-04-21T04:30:56;78944.88;;;-144.67;100.00
47522;BME280;32291;52.010;4.446;2023-04-21T04:31:58;78947.03;;;-144.67;100.00
47522;BME280;32291;52.010;4.446;2023-04-21T04:33:02;78951.31;;;-144.67;100.00
47522;BME280;32291;52.010;4.446;2023-04-21T04:34:04;78947.03;;;-144.67;100.00
47522;BME280;32291;52.010;4.446;2023-04-21T04:35:09;78940.59;;;-144.67;100.00
47522;BME280;32291;52.010;4.446;2023-04-21T04:36:11;78936.31;;;-144.67;100.00
47522;BME280;32291;52.010;4.446;2023-04-21T04:37:13;78934.16;;;-144.67;100.00
47522;BME280;32291;52.010;4.446;2023-04-21T04:38:15;78934.16;;;-144.67;100.00
47522;BME280;32291;52.010;4.446;2023-04-21T04:39:18;78938.44;;;-144.67;100.00
47522;BME280;32291;52.010;4.446;2023-04-21T04:40:20;78936.31;;;-144.67;100.00
47522;BME280;32291;52.010;4.446;2023-04-21T04:41:23;78934.16;;;-144.67;100.00
47522;BME280;32291;52.010;4.446;2023-04-21T04:42:26;78929.88;;;-144.67;100.00
47522;BME280;32291;52.010;4.446;2023-04-21T04:43:27;78921.31;;;-144.67;100.00
47522;BME280;32291;52.010;4.446;2023-04-21T04:44:30;78929.88;;;-144.67;100.00
47522;BME280;32291;52.010;4.446;2023-04-21T04:45:32;78929.88;;;-144.67;100.00
47522;BME280;32291;52.010;4.446;2023-04-21T04:46:34;78934.16;;;-144.67;100.00
47522;BME280;32291;52.010;4.446;2023-04-21T04:47:36;78934.16;;;-144.67;100.00
47522;BME280;32291;52.010;4.446;2023-04-21T04:48:38;78938.44;;;-144.67;100.00
47522;BME280;32291;52.010;4.446;2023-04-21T04:49:40;78936.31;;;-144.67;100.00
47522;BME280;32291;52.010;4.446;2023-04-21T04:50:42;78942.72;;;-144.67;100.00
47522;BME280;32291;52.010;4.446;2023-04-21T04:51:43;78938.44;;;-144.67;100.00
47522;BME280;32291;52.010;4.446;2023-04-21T04:52:45;78934.16;;;-144.67;100.00
47522;BME280;32291;52.010;4.446;2023-04-21T04:53:48;78934.16;;;-144.67;100.00
47522;BME280;32291;52.010;4.446;2023-04-21T04:54:49;78934.16;;;-144.67;100.00
47522;BME280;32291;52.010;4.446;2023-04-21T04:55:51;78932.03;;;-144.67;100.00
47522;BME280;32291;52.010;4.446;2023-04-21T04:56:54;78917.03;;;-144.67;100.00
47522;BME280;32291;52.010;4.446;2023-04-21T04:57:58;78917.03;;;-144.67;100.00
47522;BME280;32291;52.010;4.446;2023-04-21T04:59:02;78917.03;;;-144.67;100.00
47522;BME280;32291;52.010;4.446;2023-04-21T05:00:07;78919.19;;;-144.67;100.00
47522;BME280;32291;52.010;4.446;2023-04-21T05:01:16;78921.31;;;-144.67;100.00
47522;BME280;32291;52.010;4.446;2023-04-21T05:02:18;78932.03;;;-144.67;100.00
47522;BME280;32291;52.010;4.446;2023-04-21T05:03:20;78919.19;;;-144.67;100.00
47522;BME280;32291;52.010;4.446;2023-04-21T05:04:22;78925.59;;;-144.67;100.00
47522;BME280;32291;52.010;4.446;2023-04-21T05:05:24;78929.88;;;-144.67;100.00
47522;BME280;32291;52.010;4.446;2023-04-21T05:06:27;78921.31;;;-144.67;100.00
47522;BME280;32291;52.010;4.446;2023-04-21T05:07:29;78917.03;;;-144.67;100.00
47522;BME280;32291;52.010;4.446;2023-04-21T05:08:31;78912.75;;;-144.67;100.00
47522;BME280;32291;52.010;4.446;2023-04-21T05:09:33;78912.75;;;-144.67;100.00
47522;BME280;32291;52.010;4.446;2023-04-21T05:10:35;78921.31;;;-144.67;100.00
47522;BME280;32291;52.010;4.446;2023-04-21T05:11:37;78912.75;;;-144.67;100.00
47522;BME280;32291;52.010;4.446;2023-04-21T05:12:38;78908.47;;;-144.67;100.00
47522;BME280;32291;52.010;4.446;2023-04-21T05:13:40;78906.34;;;-144.67;100.00
47522;BME280;32291;52.010;4.446;2023-04-21T05:14:41;78908.47;;;-144.67;100.00
47522;BME280;32291;52.010;4.446;2023-04-21T05:15:43;78912.75;;;-144.67;100.00
47522;BME280;32291;52.010;4.446;2023-04-21T05:16:45;78908.47;;;-144.67;100.00
47522;BME280;32291;52.010;4.446;2023-04-21T05:17:47;78906.34;;;-144.67;100.00